| time (UTC) | temp C | wind direction | speed KPH | gust KPH | rain 1hr cm | rain 24hr cm | rain mn cm | humidity % | barometer mb |
| 20260510211231 | 10 | 208 | 0.0 | 0.0 | 0.00 | 1.02 | 1.02 | 93 | 1015.0 |
| 20260510210735 | 10 | 208 | 0.0 | 0.0 | 0.00 | 1.02 | 1.02 | 93 | 1014.9 |
| 20260510210225 | 10 | 208 | 0.0 | 0.0 | 0.00 | 1.02 | 1.02 | 93 | 1015.0 |
| 20260510205725 | 10 | 208 | 0.0 | 0.0 | 0.00 | 1.02 | 1.02 | 93 | 1015.1 |
| 20260510205230 | 10 | 208 | 0.0 | 0.0 | 0.00 | 1.02 | 1.02 | 93 | 1015.0 |
| 20260510204727 | 10 | 208 | 0.0 | 0.0 | 0.00 | 1.02 | 1.02 | 93 | 1014.8 |
| 20260510204217 | 11 | 208 | 0.0 | 0.0 | 0.00 | 1.02 | 1.02 | 93 | 1014.7 |
| 20260510203724 | 11 | 208 | 0.0 | 0.0 | 0.00 | 1.02 | 1.02 | 93 | 1014.6 |
| 20260510203232 | 11 | 208 | 0.0 | 0.0 | 0.00 | 1.02 | 1.02 | 93 | 1014.6 |
| 20260510202739 | 11 | 208 | 0.0 | 0.0 | 0.00 | 1.02 | 1.02 | 93 | 1014.5 |
| 20260510202240 | 11 | 208 | 0.0 | 0.0 | 0.00 | 1.02 | 1.02 | 93 | 1014.4 |
| 20260510201718 | 11 | 208 | 0.0 | 0.0 | 0.00 | 1.02 | 1.02 | 93 | 1014.3 |
| 20260510201239 | 11 | 208 | 0.0 | 0.0 | 0.00 | 1.02 | 1.02 | 93 | 1014.3 |
| 20260510200724 | 11 | 208 | 0.0 | 0.0 | 0.00 | 1.02 | 1.02 | 93 | 1014.3 |
| 20260510200237 | 11 | 208 | 0.0 | 0.0 | 0.00 | 1.02 | 1.02 | 93 | 1014.3 |
| 20260510195735 | 11 | 208 | 0.0 | 0.0 | 0.00 | 1.02 | 1.02 | 93 | 1014.3 |
| 20260510195237 | 11 | 208 | 0.0 | 0.0 | 0.00 | 1.02 | 1.02 | 93 | 1014.3 |
| 20260510194739 | 11 | 208 | 0.0 | 0.0 | 0.00 | 1.02 | 1.02 | 93 | 1014.2 |
| 20260510194303 | 11 | 208 | 0.0 | 0.0 | 0.00 | 1.02 | 1.02 | 93 | 1014.2 |
| 20260510193722 | 11 | 208 | 0.0 | 0.0 | 0.00 | 1.02 | 1.02 | 93 | 1014.2 |
| 20260510193224 | 11 | 208 | 0.0 | 0.0 | 0.00 | 1.02 | 1.02 | 93 | 1014.1 |
| 20260510192734 | 11 | 208 | 0.0 | 0.0 | 0.00 | 1.02 | 1.02 | 93 | 1014.0 |
| 20260510192257 | 11 | 208 | 0.0 | 0.0 | 0.00 | 1.02 | 1.02 | 93 | 1014.0 |
| 20260510191740 | 11 | 208 | 0.0 | 0.0 | 0.00 | 1.02 | 1.02 | 93 | 1013.9 |
| 20260510191232 | 11 | 208 | 0.0 | 0.0 | 0.00 | 1.02 | 1.02 | 93 | 1013.8 |
| 20260510190740 | 11 | 208 | 0.0 | 0.0 | 0.00 | 1.02 | 1.02 | 93 | 1013.8 |
| 20260510190227 | 11 | 208 | 0.0 | 0.0 | 0.00 | 1.02 | 1.02 | 93 | 1013.8 |
| 20260510185751 | 11 | 208 | 0.0 | 0.0 | 0.00 | 1.02 | 1.02 | 93 | 1013.8 |
| 20260510185249 | 11 | 208 | 0.0 | 0.0 | 0.00 | 1.02 | 1.02 | 93 | 1013.8 |
| 20260510184733 | 11 | 208 | 0.0 | 0.0 | 0.00 | 1.02 | 1.02 | 93 | 1013.7 |
| 20260510184220 | 12 | 208 | 0.0 | 0.0 | 0.00 | 1.02 | 1.02 | 93 | 1013.7 |
| 20260510183725 | 12 | 208 | 0.0 | 0.0 | 0.00 | 1.02 | 1.02 | 93 | 1013.7 |
| 20260510183250 | 12 | 208 | 0.0 | 0.0 | 0.00 | 1.02 | 1.02 | 93 | 1013.7 |
| 20260510182728 | 12 | 208 | 0.0 | 0.0 | 0.00 | 1.02 | 1.02 | 93 | 1013.7 |
| 20260510182231 | 12 | 208 | 0.0 | 0.0 | 0.03 | 1.02 | 1.02 | 93 | 1013.7 |
| 20260510181716 | 12 | 208 | 0.0 | 0.0 | 0.03 | 1.02 | 1.02 | 93 | 1013.6 |
| 20260510181233 | 12 | 208 | 0.0 | 0.0 | 0.03 | 1.02 | 1.02 | 93 | 1013.7 |
| 20260510180735 | 12 | 208 | 0.0 | 0.0 | 0.03 | 1.02 | 1.02 | 93 | 1013.7 |
| 20260510180218 | 12 | 204 | 0.0 | 0.0 | 0.05 | 1.02 | 1.02 | 93 | 1013.6 |
| 20260510175801 | 12 | 215 | 0.0 | 0.0 | 0.05 | 1.02 | 1.02 | 92 | 1013.6 |
| 20260510175242 | 12 | 199 | 0.0 | 0.0 | 0.05 | 1.02 | 1.02 | 93 | 1013.6 |
| 20260510174736 | 12 | 193 | 0.0 | 0.0 | 0.05 | 1.02 | 1.02 | 93 | 1013.6 |
| 20260510174240 | 12 | 186 | 0.0 | 0.0 | 0.05 | 1.02 | 1.02 | 93 | 1013.4 |
| 20260510173747 | 12 | 248 | 0.0 | 0.0 | 0.08 | 1.02 | 1.02 | 93 | 1013.4 |
| 20260510173237 | 12 | 248 | 0.0 | 0.0 | 0.08 | 1.02 | 1.02 | 93 | 1013.3 |
| 20260510172721 | 12 | 248 | 0.0 | 0.0 | 0.10 | 1.02 | 1.02 | 93 | 1013.4 |
| 20260510172217 | 12 | 248 | 0.0 | 0.0 | 0.08 | 0.99 | 0.99 | 92 | 1013.6 |
| 20260510171748 | 12 | 248 | 0.0 | 0.0 | 0.08 | 0.99 | 0.99 | 92 | 1013.7 |
| 20260510171217 | 12 | 248 | 0.0 | 0.0 | 0.08 | 0.99 | 0.99 | 92 | 1013.7 |
| 20260510170726 | 12 | 250 | 0.0 | 0.0 | 0.08 | 0.99 | 0.99 | 92 | 1013.8 |
| 20260510170224 | 12 | 244 | 0.0 | 0.0 | 0.05 | 0.99 | 0.99 | 92 | 1013.7 |
| 20260510165742 | 12 | 252 | 0.0 | 0.0 | 0.05 | 0.97 | 0.97 | 92 | 1013.8 |
| 20260510165232 | 12 | 258 | 0.0 | 0.0 | 0.08 | 0.97 | 0.97 | 92 | 1013.7 |
| 20260510164736 | 12 | 257 | 0.0 | 0.0 | 0.13 | 0.97 | 0.97 | 92 | 1013.7 |
| 20260510164227 | 12 | 259 | 0.0 | 0.0 | 0.15 | 0.97 | 0.97 | 92 | 1013.6 |
| 20260510163726 | 11 | 246 | 0.0 | 0.0 | 0.20 | 0.97 | 0.94 | 92 | 1013.7 |
| 20260510163234 | 11 | 249 | 0.0 | 0.0 | 0.23 | 0.97 | 0.94 | 92 | 1013.7 |
| 20260510162739 | 11 | 252 | 0.0 | 0.0 | 0.25 | 0.94 | 0.91 | 92 | 1013.6 |
| 20260510162216 | 11 | 257 | 0.0 | 0.0 | 0.28 | 0.94 | 0.91 | 92 | 1013.6 |
| 20260510161728 | 11 | 242 | 0.0 | 0.0 | 0.28 | 0.94 | 0.91 | 92 | 1013.6 |
| 20260510161249 | 12 | 240 | 0.0 | 0.0 | 0.33 | 0.94 | 0.91 | 92 | 1013.7 |
| 20260510160738 | 12 | 254 | 0.0 | 0.0 | 0.38 | 0.94 | 0.91 | 92 | 1013.5 |
| 20260510160227 | 11 | 257 | 0.0 | 0.0 | 0.43 | 0.94 | 0.91 | 92 | 1013.4 |
| 20260510155739 | 11 | 255 | 0.0 | 0.0 | 0.43 | 0.94 | 0.91 | 91 | 1013.4 |
| 20260510155232 | 12 | 253 | 0.0 | 0.0 | 0.38 | 0.89 | 0.89 | 90 | 1013.6 |
| 20260510154738 | 12 | 264 | 0.0 | 0.0 | 0.33 | 0.86 | 0.84 | 91 | 1013.6 |
| 20260510154239 | 12 | 263 | 0.0 | 0.0 | 0.33 | 0.84 | 0.81 | 90 | 1013.4 |
| 20260510153758 | 12 | 277 | 0.0 | 0.0 | 0.25 | 0.86 | 0.76 | 91 | 1013.2 |
| 20260510153219 | 12 | 264 | 0.0 | 0.0 | 0.20 | 0.79 | 0.71 | 91 | 1013.0 |
| 20260510152726 | 12 | 269 | 0.0 | 3.2 | 0.15 | 0.76 | 0.66 | 90 | 1013.1 |
| 20260510152241 | 13 | 269 | 0.0 | 3.2 | 0.15 | 0.74 | 0.64 | 89 | 1013.0 |
| 20260510151718 | 13 | 257 | 0.0 | 0.0 | 0.15 | 0.74 | 0.64 | 89 | 1013.1 |
| 20260510151239 | 13 | 254 | 0.0 | 0.0 | 0.08 | 0.69 | 0.58 | 89 | 1013.1 |
| 20260510150716 | 13 | 253 | 0.0 | 0.0 | 0.05 | 0.64 | 0.53 | 88 | 1012.7 |
| 20260510150226 | 13 | 257 | 0.0 | 0.0 | 0.00 | 0.61 | 0.51 | 88 | 1012.7 |
| 20260510145737 | 13 | 257 | 0.0 | 0.0 | 0.00 | 0.61 | 0.51 | 87 | 1012.7 |
| 20260510145235 | 13 | 255 | 0.0 | 0.0 | 0.00 | 0.61 | 0.51 | 86 | 1012.7 |
| 20260510144744 | 13 | 271 | 0.0 | 0.0 | 0.00 | 0.61 | 0.51 | 87 | 1012.7 |
| 20260510144223 | 13 | 248 | 0.0 | 0.0 | 0.00 | 0.61 | 0.51 | 87 | 1012.8 |
| 20260510143724 | 13 | 250 | 0.0 | 4.8 | 0.00 | 0.61 | 0.51 | 87 | 1012.9 |
| 20260510143226 | 14 | 245 | 0.0 | 8.0 | 0.00 | 0.61 | 0.51 | 88 | 1013.0 |
| 20260510142716 | 14 | 280 | 0.0 | 8.0 | 0.03 | 0.61 | 0.51 | 88 | 1012.9 |
| 20260510142231 | 14 | 232 | 0.0 | 1.6 | 0.03 | 0.61 | 0.51 | 90 | 1012.9 |
| 20260510141736 | 13 | 246 | 0.0 | 0.0 | 0.03 | 0.61 | 0.51 | 91 | 1013.0 |
| 20260510141238 | 13 | 252 | 0.0 | 0.0 | 0.05 | 0.61 | 0.51 | 93 | 1013.0 |
| 20260510140740 | 13 | 221 | 0.0 | 9.7 | 0.05 | 0.61 | 0.51 | 93 | 1013.2 |
| 20260510140230 | 12 | 267 | 1.6 | 9.7 | 0.08 | 0.61 | 0.51 | 93 | 1013.4 |
| 20260510135738 | 12 | 256 | 0.0 | 6.4 | 0.15 | 0.61 | 0.51 | 92 | 1013.5 |
| 20260510135228 | 12 | 255 | 0.0 | 6.4 | 0.15 | 0.61 | 0.51 | 92 | 1013.6 |
| 20260510134739 | 12 | 258 | 0.0 | 0.0 | 0.15 | 0.61 | 0.51 | 92 | 1013.6 |
| 20260510134253 | 12 | 273 | 0.0 | 0.0 | 0.15 | 0.61 | 0.51 | 93 | 1013.6 |
| 20260510133727 | 12 | 251 | 0.0 | 0.0 | 0.18 | 0.61 | 0.51 | 93 | 1013.6 |
| 20260510133220 | 12 | 262 | 0.0 | 0.0 | 0.20 | 0.61 | 0.51 | 92 | 1013.6 |
| 20260510132717 | 12 | 266 | 0.0 | 0.0 | 0.18 | 0.58 | 0.48 | 92 | 1013.6 |
| 20260510132238 | 12 | 240 | 0.0 | 0.0 | 0.20 | 0.58 | 0.48 | 92 | 1013.7 |
| 20260510131742 | 12 | 202 | 0.0 | 0.0 | 0.20 | 0.58 | 0.48 | 92 | 1013.6 |
| 20260510131219 | 12 | 266 | 0.0 | 0.0 | 0.18 | 0.56 | 0.46 | 92 | 1013.6 |
| 20260510130717 | 12 | 244 | 0.0 | 0.0 | 0.18 | 0.56 | 0.46 | 92 | 1013.6 |
| 20260510130219 | 12 | 227 | 0.0 | 0.0 | 0.15 | 0.51 | 0.43 | 91 | 1013.6 |
| 20260510125744 | 12 | 227 | 0.0 | 0.0 | 0.08 | 0.46 | 0.36 | 91 | 1013.7 |
| 20260510125245 | 12 | 263 | 0.0 | 0.0 | 0.05 | 0.43 | 0.33 | 91 | 1013.5 |
| 20260510124718 | 12 | 261 | 0.0 | 0.0 | 0.05 | 0.43 | 0.33 | 92 | 1013.3 |
| 20260510124220 | 12 | 260 | 0.0 | 0.0 | 0.05 | 0.43 | 0.33 | 92 | 1013.1 |
| 20260510123728 | 12 | 252 | 0.0 | 0.0 | 0.05 | 0.43 | 0.33 | 91 | 1014.1 |
| 20260510123224 | 12 | 258 | 0.0 | 0.0 | 0.03 | 0.41 | 0.30 | 91 | 1014.3 |
| 20260510122730 | 12 | 245 | 0.0 | 0.0 | 0.03 | 0.41 | 0.30 | 90 | 1014.1 |
| 20260510122235 | 12 | 271 | 0.0 | 19.3 | 0.05 | 0.41 | 0.30 | 89 | 1014.2 |
| 20260510121728 | 13 | 259 | 11.3 | 19.3 | 0.03 | 0.38 | 0.28 | 91 | 1014.2 |
| 20260510121233 | 13 | 252 | 3.2 | 16.1 | 0.05 | 0.38 | 0.28 | 91 | 1013.7 |
| 20260510120756 | 13 | 242 | 1.6 | 16.1 | 0.08 | 0.38 | 0.28 | 92 | 1013.6 |
| 20260510120236 | 13 | 196 | 0.0 | 12.9 | 0.08 | 0.38 | 0.28 | 92 | 1013.6 |
| 20260510115740 | 13 | 178 | 4.8 | 12.9 | 0.10 | 0.38 | 0.28 | 92 | 1013.8 |
| 20260510115240 | 13 | 217 | 1.6 | 8.0 | 0.13 | 0.38 | 0.28 | 92 | 1014.1 |
| 20260510114736 | 13 | 189 | 0.0 | 0.0 | 0.15 | 0.38 | 0.28 | 92 | 1014.0 |
| 20260510114219 | 12 | 184 | 0.0 | 0.0 | 0.15 | 0.38 | 0.28 | 91 | 1014.1 |
| 20260510113727 | 12 | 246 | 0.0 | 0.0 | 0.15 | 0.38 | 0.28 | 91 | 1014.2 |
| 20260510113241 | 12 | 232 | 0.0 | 0.0 | 0.15 | 0.38 | 0.28 | 91 | 1014.3 |
| 20260510112749 | 12 | 202 | 0.0 | 0.0 | 0.15 | 0.38 | 0.28 | 91 | 1014.4 |
| 20260510112300 | 12 | 199 | 0.0 | 0.0 | 0.15 | 0.36 | 0.25 | 91 | 1014.5 |
| 20260510111735 | 12 | 239 | 0.0 | 0.0 | 0.15 | 0.36 | 0.25 | 91 | 1014.4 |
| 20260510111234 | 12 | 222 | 0.0 | 0.0 | 0.13 | 0.33 | 0.23 | 90 | 1014.3 |
| 20260510110741 | 12 | 203 | 0.0 | 0.0 | 0.10 | 0.33 | 0.23 | 89 | 1014.5 |
| 20260510110237 | 12 | 205 | 0.0 | 0.0 | 0.08 | 0.30 | 0.20 | 89 | 1014.5 |
| 20260510105725 | 12 | 196 | 0.0 | 0.0 | 0.05 | 0.28 | 0.18 | 89 | 1014.4 |
| 20260510105240 | 13 | 202 | 0.0 | 0.0 | 0.05 | 0.25 | 0.15 | 88 | 1014.4 |
| 20260510104720 | 13 | 196 | 0.0 | 0.0 | 0.03 | 0.23 | 0.15 | 89 | 1014.4 |
| 20260510104218 | 13 | 257 | 0.0 | 0.0 | 0.03 | 0.23 | 0.15 | 89 | 1014.5 |
| 20260510103750 | 13 | 196 | 0.0 | 0.0 | 0.03 | 0.28 | 0.15 | 88 | 1014.4 |
| 20260510103229 | 13 | 182 | 0.0 | 14.5 | 0.03 | 0.28 | 0.15 | 87 | 1014.4 |
| 20260510102731 | 13 | 187 | 1.6 | 14.5 | 0.03 | 0.28 | 0.15 | 86 | 1014.6 |
| 20260510102232 | 13 | 182 | 1.6 | 19.3 | 0.00 | 0.25 | 0.13 | 86 | 1014.6 |
| 20260510101729 | 13 | 182 | 3.2 | 19.3 | 0.00 | 0.25 | 0.13 | 85 | 1014.6 |
| 20260510101258 | 13 | 187 | 0.0 | 14.5 | 0.00 | 0.25 | 0.13 | 85 | 1014.5 |
| 20260510100740 | 13 | 171 | 1.6 | 14.5 | 0.00 | 0.25 | 0.13 | 85 | 1014.5 |
| 20260510100229 | 13 | 198 | 0.0 | 0.0 | 0.00 | 0.25 | 0.13 | 84 | 1014.5 |
| 20260510095827 | 13 | 236 | 0.0 | 3.2 | 0.00 | 0.25 | 0.13 | 82 | 1012.9 |
| 20260510095240 | 13 | 223 | 0.0 | 3.2 | 0.00 | 0.25 | 0.13 | 81 | 1014.4 |
| 20260510094803 | 14 | 225 | 0.0 | 0.0 | 0.00 | 0.25 | 0.13 | 79 | 1014.3 |
| 20260510094245 | 14 | 215 | 0.0 | 0.0 | 0.00 | 0.25 | 0.13 | 77 | 1014.1 |
| 20260510093738 | 14 | 231 | 0.0 | 0.0 | 0.00 | 0.25 | 0.13 | 77 | 1014.2 |
| 20260510093235 | 14 | 217 | 0.0 | 0.0 | 0.00 | 0.25 | 0.13 | 77 | 1014.2 |
| 20260510092743 | 14 | 260 | 0.0 | 0.0 | 0.00 | 0.25 | 0.13 | 78 | 1014.2 |
| 20260510092223 | 14 | 230 | 0.0 | 0.0 | 0.00 | 0.25 | 0.13 | 78 | 1014.1 |
| 20260510091735 | 14 | 213 | 0.0 | 0.0 | 0.00 | 0.25 | 0.13 | 79 | 1014.0 |
| 20260510091252 | 14 | 256 | 0.0 | 0.0 | 0.00 | 0.25 | 0.13 | 78 | 1014.0 |
| 20260510090804 | 14 | 197 | 0.0 | 0.0 | 0.00 | 0.25 | 0.13 | 78 | 1013.9 |
| 20260510090232 | 14 | 206 | 0.0 | 0.0 | 0.00 | 0.25 | 0.13 | 78 | 1013.9 |
| 20260510085735 | 14 | 211 | 0.0 | 0.0 | 0.00 | 0.25 | 0.13 | 77 | 1013.8 |
| 20260510085236 | 13 | 203 | 0.0 | 0.0 | 0.00 | 0.25 | 0.13 | 78 | 1013.8 |
| 20260510084717 | 13 | 215 | 0.0 | 0.0 | 0.00 | 0.25 | 0.13 | 80 | 1013.8 |
| 20260510084235 | 13 | 190 | 0.0 | 0.0 | 0.00 | 0.25 | 0.13 | 81 | 1013.9 |
| 20260510083737 | 13 | 229 | 0.0 | 0.0 | 0.00 | 0.25 | 0.13 | 83 | 1013.8 |
| 20260510083216 | 13 | 229 | 0.0 | 0.0 | 0.00 | 0.25 | 0.13 | 83 | 1013.7 |
| 20260510082746 | 13 | 194 | 0.0 | 0.0 | 0.00 | 0.25 | 0.13 | 84 | 1013.8 |
| 20260510082229 | 13 | 194 | 0.0 | 0.0 | 0.00 | 0.25 | 0.13 | 87 | 1013.9 |
| 20260510081717 | 12 | 157 | 0.0 | 0.0 | 0.00 | 0.25 | 0.13 | 87 | 1013.9 |
| 20260510081237 | 12 | 232 | 0.0 | 0.0 | 0.00 | 0.25 | 0.13 | 88 | 1013.9 |
| 20260510080731 | 12 | 181 | 0.0 | 0.0 | 0.00 | 0.25 | 0.13 | 89 | 1013.9 |
| 20260510080230 | 12 | 182 | 0.0 | 0.0 | 0.00 | 0.25 | 0.13 | 90 | 1013.9 |
| 20260510075731 | 12 | 202 | 0.0 | 0.0 | 0.00 | 0.25 | 0.13 | 91 | 1013.8 |
| 20260510075219 | 12 | 181 | 0.0 | 6.4 | 0.00 | 0.25 | 0.13 | 92 | 1013.9 |
| 20260510074726 | 12 | 179 | 1.6 | 6.4 | 0.00 | 0.25 | 0.13 | 93 | 1013.9 |
| 20260510074233 | 12 | 180 | 0.0 | 0.0 | 0.00 | 0.25 | 0.13 | 93 | 1013.9 |
| 20260510073724 | 12 | 196 | 0.0 | 0.0 | 0.00 | 0.25 | 0.13 | 93 | 1013.9 |
| 20260510073218 | 12 | 188 | 0.0 | 0.0 | 0.00 | 0.25 | 0.13 | 93 | 1014.0 |
| 20260510072733 | 12 | 196 | 0.0 | 0.0 | 0.00 | 0.25 | 0.13 | 93 | 1013.9 |
| 20260510072244 | 11 | 184 | 0.0 | 0.0 | 0.00 | 0.25 | 0.13 | 93 | 1013.9 |
| 20260510071720 | 11 | 185 | 0.0 | 0.0 | 0.00 | 0.25 | 0.13 | 93 | 1013.9 |
| 20260510071223 | 11 | 194 | 0.0 | 0.0 | 0.00 | 0.25 | 0.13 | 93 | 1014.1 |
| 20260510070723 | 11 | 177 | 0.0 | 0.0 | 0.00 | 0.25 | 0.13 | 93 | 1014.2 |
| 20260510070225 | 11 | 202 | 0.0 | 0.0 | 0.00 | 0.25 | 0.13 | 93 | 1014.1 |
| 20260510065725 | 11 | 183 | 0.0 | 0.0 | 0.00 | 0.25 | 0.13 | 93 | 1014.0 |
| 20260510065241 | 11 | 189 | 0.0 | 0.0 | 0.03 | 0.25 | 0.13 | 93 | 1013.9 |
| 20260510064737 | 11 | 183 | 0.0 | 0.0 | 0.03 | 0.25 | 0.13 | 93 | 1013.9 |
| 20260510064219 | 11 | 187 | 0.0 | 0.0 | 0.03 | 0.25 | 0.13 | 93 | 1013.8 |
| 20260510063745 | 11 | 184 | 0.0 | 0.0 | 0.03 | 0.25 | 0.13 | 93 | 1013.7 |
| 20260510063222 | 11 | 183 | 0.0 | 0.0 | 0.03 | 0.25 | 0.13 | 93 | 1013.8 |
| 20260510062738 | 11 | 183 | 0.0 | 0.0 | 0.03 | 0.25 | 0.13 | 93 | 1013.7 |
| 20260510062230 | 11 | 183 | 0.0 | 0.0 | 0.03 | 0.25 | 0.13 | 93 | 1013.7 |
| 20260510061725 | 11 | 183 | 0.0 | 0.0 | 0.03 | 0.25 | 0.13 | 93 | 1013.7 |
| 20260510061226 | 11 | 183 | 0.0 | 0.0 | 0.03 | 0.25 | 0.13 | 93 | 1013.6 |
| 20260510060738 | 11 | 183 | 0.0 | 0.0 | 0.03 | 0.25 | 0.13 | 93 | 1013.6 |
| 20260510060230 | 11 | 183 | 0.0 | 0.0 | 0.03 | 0.25 | 0.13 | 93 | 1013.5 |
| 20260510055731 | 11 | 183 | 0.0 | 0.0 | 0.03 | 0.25 | 0.13 | 93 | 1013.5 |
| 20260510055231 | 11 | 183 | 0.0 | 0.0 | 0.05 | 0.23 | 0.10 | 93 | 1013.7 |
| 20260510054727 | 11 | 183 | 0.0 | 0.0 | 0.08 | 0.23 | 0.10 | 92 | 1013.6 |
| 20260510054241 | 11 | 183 | 0.0 | 0.0 | 0.08 | 0.23 | 0.10 | 92 | 1013.6 |
| 20260510053720 | 11 | 183 | 0.0 | 0.0 | 0.08 | 0.23 | 0.10 | 92 | 1013.6 |
| 20260510053235 | 11 | 183 | 0.0 | 0.0 | 0.08 | 0.23 | 0.10 | 92 | 1013.6 |
| 20260510052736 | 11 | 183 | 0.0 | 0.0 | 0.08 | 0.23 | 0.10 | 92 | 1013.5 |
| 20260510052258 | 11 | 183 | 0.0 | 0.0 | 0.08 | 0.23 | 0.10 | 92 | 1013.6 |
| 20260510051727 | 11 | 183 | 0.0 | 0.0 | 0.08 | 0.23 | 0.10 | 92 | 1013.7 |
| 20260510051232 | 11 | 183 | 0.0 | 0.0 | 0.08 | 0.23 | 0.10 | 92 | 1013.7 |
| 20260510050738 | 11 | 183 | 0.0 | 0.0 | 0.08 | 0.23 | 0.10 | 91 | 1013.7 |
| 20260510050236 | 11 | 183 | 0.0 | 0.0 | 0.10 | 0.23 | 0.10 | 91 | 1013.6 |
| 20260510045735 | 11 | 183 | 0.0 | 0.0 | 0.10 | 0.23 | 0.10 | 91 | 1013.5 |
| 20260510045237 | 11 | 183 | 0.0 | 0.0 | 0.05 | 0.20 | 0.05 | 91 | 1013.6 |
| 20260510044716 | 11 | 183 | 0.0 | 0.0 | 0.03 | 0.15 | 0.03 | 91 | 1013.6 |
| 20260510044235 | 11 | 183 | 0.0 | 0.0 | 0.03 | 0.15 | 0.03 | 91 | 1013.5 |
| 20260510043728 | 11 | 183 | 0.0 | 0.0 | 0.03 | 0.15 | 0.03 | 91 | 1013.4 |
| 20260510043233 | 11 | 183 | 0.0 | 0.0 | 0.03 | 0.15 | 0.03 | 91 | 1013.5 |
| 20260510042732 | 11 | 183 | 0.0 | 0.0 | 0.03 | 0.15 | 0.03 | 91 | 1013.5 |
| 20260510042236 | 11 | 183 | 0.0 | 0.0 | 0.03 | 0.15 | 0.03 | 91 | 1013.6 |
| 20260510041725 | 11 | 186 | 0.0 | 0.0 | 0.03 | 0.15 | 0.03 | 91 | 1013.5 |
| 20260510041242 | 11 | 192 | 0.0 | 0.0 | 0.03 | 0.15 | 0.03 | 90 | 1013.5 |
| 20260510040716 | 11 | 192 | 0.0 | 0.0 | 0.03 | 0.15 | 0.03 | 90 | 1013.6 |
| 20260510040242 | 11 | 194 | 0.0 | 0.0 | 0.00 | 0.15 | 0.00 | 91 | 1013.5 |
| 20260510035737 | 11 | 196 | 0.0 | 0.0 | 0.00 | 0.15 | 0.00 | 91 | 1013.5 |
| 20260510035240 | 11 | 195 | 0.0 | 0.0 | 0.00 | 0.15 | 0.00 | 91 | 1013.5 |
| 20260510034729 | 11 | 195 | 0.0 | 0.0 | 0.00 | 0.15 | 0.00 | 91 | 1013.6 |
| 20260510034232 | 11 | 196 | 0.0 | 0.0 | 0.00 | 0.15 | 0.00 | 91 | 1013.7 |
| 20260510033729 | 11 | 196 | 0.0 | 0.0 | 0.00 | 0.15 | 0.00 | 91 | 1013.8 |
| 20260510033234 | 10 | 196 | 0.0 | 0.0 | 0.00 | 0.15 | 0.00 | 91 | 1013.7 |
| 20260510032720 | 10 | 196 | 0.0 | 0.0 | 0.00 | 0.15 | 0.00 | 91 | 1013.7 |
| 20260510032238 | 10 | 196 | 0.0 | 0.0 | 0.00 | 0.15 | 0.00 | 90 | 1013.7 |
| 20260510031732 | 10 | 196 | 0.0 | 0.0 | 0.00 | 0.15 | 0.00 | 90 | 1013.7 |
| 20260510031223 | 10 | 196 | 0.0 | 0.0 | 0.00 | 0.15 | 0.00 | 90 | 1013.6 |
| 20260510030721 | 10 | 196 | 0.0 | 0.0 | 0.00 | 0.15 | 0.00 | 90 | 1013.7 |
| 20260510030232 | 10 | 196 | 0.0 | 0.0 | 0.00 | 0.15 | 0.00 | 90 | 1013.7 |
| 20260510025740 | 10 | 196 | 0.0 | 0.0 | 0.00 | 0.15 | 0.00 | 90 | 1013.8 |
| 20260510025231 | 10 | 196 | 0.0 | 0.0 | 0.00 | 0.15 | 0.00 | 89 | 1013.8 |
| 20260510024737 | 10 | 196 | 0.0 | 0.0 | 0.00 | 0.15 | 0.00 | 89 | 1013.8 |
| 20260510024245 | 10 | 196 | 0.0 | 0.0 | 0.00 | 0.15 | 0.00 | 89 | 1013.9 |
| 20260510023726 | 10 | 196 | 0.0 | 0.0 | 0.00 | 0.15 | 0.00 | 89 | 1013.8 |
| 20260510023246 | 10 | 196 | 0.0 | 0.0 | 0.00 | 0.15 | 0.00 | 89 | 1013.8 |
| 20260510022743 | 10 | 196 | 0.0 | 0.0 | 0.00 | 0.15 | 0.00 | 88 | 1013.9 |
| 20260510022237 | 10 | 196 | 0.0 | 0.0 | 0.00 | 0.15 | 0.00 | 88 | 1013.9 |
| 20260510021730 | 10 | 196 | 0.0 | 0.0 | 0.00 | 0.15 | 0.00 | 88 | 1014.0 |
| 20260510021231 | 10 | 196 | 0.0 | 0.0 | 0.00 | 0.15 | 0.00 | 88 | 1014.0 |
| 20260510020740 | 10 | 196 | 0.0 | 0.0 | 0.00 | 0.15 | 0.00 | 87 | 1014.0 |
| 20260510020217 | 10 | 196 | 0.0 | 0.0 | 0.00 | 0.15 | 0.00 | 87 | 1014.0 |
| 20260510015738 | 10 | 196 | 0.0 | 0.0 | 0.00 | 0.15 | 0.00 | 86 | 1014.1 |
| 20260510015237 | 10 | 196 | 0.0 | 0.0 | 0.00 | 0.15 | 0.00 | 86 | 1014.0 |
| 20260510014733 | 10 | 196 | 0.0 | 0.0 | 0.00 | 0.15 | 0.00 | 86 | 1013.9 |
| 20260510014229 | 10 | 196 | 0.0 | 0.0 | 0.00 | 0.15 | 0.00 | 85 | 1013.9 |
| 20260510013731 | 11 | 196 | 0.0 | 0.0 | 0.00 | 0.15 | 0.00 | 85 | 1013.8 |
| 20260510013230 | 11 | 196 | 0.0 | 0.0 | 0.00 | 0.15 | 0.00 | 85 | 1014.0 |
| 20260510012741 | 11 | 196 | 0.0 | 0.0 | 0.00 | 0.15 | 0.00 | 85 | 1014.0 |
| 20260510012241 | 11 | 196 | 0.0 | 0.0 | 0.00 | 0.15 | 0.00 | 85 | 1013.9 |
| 20260510011733 | 11 | 196 | 0.0 | 0.0 | 0.00 | 0.15 | 0.00 | 85 | 1014.0 |
| 20260510011230 | 11 | 196 | 0.0 | 0.0 | 0.00 | 0.15 | 0.00 | 85 | 1014.1 |
| 20260510010737 | 11 | 197 | 0.0 | 0.0 | 0.00 | 0.15 | 0.00 | 84 | 1014.3 |
| 20260510010238 | 11 | 197 | 0.0 | 0.0 | 0.00 | 0.15 | 0.00 | 84 | 1014.4 |
| 20260510005734 | 11 | 197 | 0.0 | 0.0 | 0.00 | 0.15 | 0.00 | 84 | 1014.4 |
| 20260510005238 | 11 | 198 | 0.0 | 0.0 | 0.00 | 0.15 | 0.00 | 84 | 1014.3 |
| 20260510004736 | 11 | 198 | 0.0 | 0.0 | 0.00 | 0.15 | 0.00 | 83 | 1014.3 |
| 20260510004217 | 11 | 198 | 0.0 | 0.0 | 0.00 | 0.15 | 0.00 | 83 | 1014.4 |
| 20260510003724 | 11 | 228 | 0.0 | 0.0 | 0.00 | 0.15 | 0.00 | 83 | 1014.4 |
| 20260510003223 | 11 | 229 | 0.0 | 0.0 | 0.00 | 0.15 | 0.00 | 83 | 1014.4 |
| 20260510002725 | 11 | 229 | 0.0 | 0.0 | 0.00 | 0.15 | 0.00 | 83 | 1014.4 |
| 20260510002238 | 11 | 219 | 0.0 | 0.0 | 0.00 | 0.15 | 0.00 | 83 | 1014.5 |
| 20260510001739 | 11 | 218 | 0.0 | 0.0 | 0.00 | 0.15 | 0.00 | 83 | 1014.5 |
| 20260510001231 | 11 | 242 | 0.0 | 0.0 | 0.00 | 0.15 | 0.00 | 83 | 1014.5 |
| 20260510000737 | 11 | 209 | 0.0 | 0.0 | 0.00 | 0.15 | 0.00 | 82 | 1014.5 |
| 20260510000245 | 11 | 209 | 0.0 | 0.0 | 0.00 | 0.15 | 0.00 | 82 | 1014.5 |
| 20260509235726 | 11 | 210 | 0.0 | 0.0 | 0.00 | 0.15 | 0.00 | 82 | 1014.5 |
| 20260509235225 | 11 | 267 | 0.0 | 0.0 | 0.00 | 0.15 | 0.00 | 82 | 1014.4 |
| 20260509234746 | 11 | 215 | 0.0 | 0.0 | 0.00 | 0.15 | 0.00 | 82 | 1014.5 |
| 20260509234228 | 11 | 211 | 0.0 | 0.0 | 0.00 | 0.15 | 0.00 | 82 | 1014.6 |
| 20260509233737 | 11 | 198 | 0.0 | 0.0 | 0.00 | 0.15 | 0.00 | 82 | 1014.6 |
| 20260509233303 | 11 | 223 | 0.0 | 0.0 | 0.00 | 0.15 | 0.00 | 82 | 1014.7 |
| 20260509232721 | 11 | 205 | 0.0 | 0.0 | 0.00 | 0.15 | 0.00 | 81 | 1014.7 |
| 20260509232258 | 11 | 225 | 0.0 | 0.0 | 0.00 | 0.15 | 0.00 | 82 | 1014.7 |
| 20260509231730 | 11 | 195 | 0.0 | 0.0 | 0.00 | 0.15 | 0.00 | 81 | 1014.7 |
| 20260509231233 | 11 | 189 | 0.0 | 0.0 | 0.00 | 0.15 | 0.00 | 81 | 1014.8 |
| 20260509230742 | 11 | 188 | 0.0 | 0.0 | 0.00 | 0.15 | 0.00 | 81 | 1014.8 |
| 20260509230219 | 11 | 182 | 0.0 | 0.0 | 0.00 | 0.15 | 0.00 | 81 | 1014.7 |
| 20260509225739 | 12 | 182 | 0.0 | 0.0 | 0.00 | 0.15 | 0.00 | 81 | 1014.8 |
| 20260509225230 | 12 | 183 | 0.0 | 0.0 | 0.00 | 0.15 | 0.00 | 81 | 1014.7 |
| 20260509224728 | 12 | 230 | 0.0 | 0.0 | 0.00 | 0.15 | 0.00 | 81 | 1014.6 |
| 20260509224230 | 12 | 185 | 0.0 | 0.0 | 0.00 | 0.15 | 0.00 | 81 | 1014.6 |
| 20260509223735 | 12 | 194 | 0.0 | 0.0 | 0.00 | 0.15 | 0.00 | 81 | 1014.5 |
| 20260509223235 | 12 | 200 | 0.0 | 0.0 | 0.00 | 0.15 | 0.00 | 81 | 1014.6 |
| 20260509222738 | 12 | 192 | 0.0 | 0.0 | 0.00 | 0.15 | 0.00 | 81 | 1014.6 |
| 20260509222240 | 12 | 193 | 0.0 | 0.0 | 0.00 | 0.15 | 0.00 | 81 | 1014.6 |
| 20260509221729 | 12 | 198 | 0.0 | 0.0 | 0.00 | 0.15 | 0.00 | 81 | 1014.7 |
| 20260509221224 | 12 | 224 | 0.0 | 0.0 | 0.00 | 0.15 | 0.00 | 80 | 1014.6 |
| 20260509220737 | 12 | 224 | 0.0 | 0.0 | 0.00 | 0.15 | 0.00 | 80 | 1014.6 |
| 20260509220220 | 12 | 224 | 0.0 | 0.0 | 0.00 | 0.15 | 0.00 | 80 | 1014.6 |
| 20260509215728 | 12 | 196 | 0.0 | 0.0 | 0.00 | 0.15 | 0.15 | 81 | 1014.4 |
| 20260509215235 | 12 | 196 | 0.0 | 0.0 | 0.00 | 0.15 | 0.15 | 81 | 1014.4 |
| 20260509214718 | 12 | 188 | 0.0 | 0.0 | 0.00 | 0.15 | 0.15 | 81 | 1014.3 |
| 20260509214226 | 12 | 186 | 0.0 | 0.0 | 0.00 | 0.15 | 0.15 | 81 | 1014.2 |
| 20260509213721 | 12 | 186 | 0.0 | 0.0 | 0.00 | 0.15 | 0.15 | 81 | 1014.2 |
| 20260509213217 | 12 | 186 | 0.0 | 0.0 | 0.00 | 0.15 | 0.15 | 81 | 1014.2 |
| 20260509212742 | 12 | 186 | 0.0 | 0.0 | 0.00 | 0.15 | 0.15 | 82 | 1014.1 |
| 20260509212227 | 12 | 186 | 0.0 | 0.0 | 0.00 | 0.15 | 0.15 | 82 | 1014.1 |
| 20260509211732 | 12 | 186 | 0.0 | 0.0 | 0.00 | 0.15 | 0.15 | 82 | 1014.0 |